sensor_id;sensor_type;location;lat;lon;timestamp;temperature;humidity
79356;SHT31;68825;51.978;5.654;2023-04-24T00:02:21;12.4;73.5
79356;SHT31;68825;51.978;5.654;2023-04-24T00:04:50;12.4;73.4
79356;SHT31;68825;51.978;5.654;2023-04-24T00:07:18;12.4;73.3
79356;SHT31;68825;51.978;5.654;2023-04-24T00:09:48;12.4;73.2
79356;SHT31;68825;51.978;5.654;2023-04-24T00:12:19;12.4;73.2
79356;SHT31;68825;51.978;5.654;2023-04-24T00:14:48;12.4;73.3
79356;SHT31;68825;51.978;5.654;2023-04-24T00:17:18;12.4;73.1
79356;SHT31;68825;51.978;5.654;2023-04-24T00:19:48;12.4;73.4
79356;SHT31;68825;51.978;5.654;2023-04-24T00:22:17;12.5;73.2
79356;SHT31;68825;51.978;5.654;2023-04-24T00:24:47;12.5;72.9
79356;SHT31;68825;51.978;5.654;2023-04-24T00:27:15;12.5;72.7
79356;SHT31;68825;51.978;5.654;2023-04-24T00:29:44;12.5;72.5
79356;SHT31;68825;51.978;5.654;2023-04-24T00:32:13;12.5;72.6
79356;SHT31;68825;51.978;5.654;2023-04-24T00:34:42;12.5;72.9
79356;SHT31;68825;51.978;5.654;2023-04-24T00:37:10;12.5;72.9
79356;SHT31;68825;51.978;5.654;2023-04-24T00:39:43;12.4;71.9
79356;SHT31;68825;51.978;5.654;2023-04-24T00:42:12;12.4;72.5
79356;SHT31;68825;51.978;5.654;2023-04-24T00:44:40;12.4;73.1
79356;SHT31;68825;51.978;5.654;2023-04-24T00:47:09;12.4;73.4
79356;SHT31;68825;51.978;5.654;2023-04-24T00:49:39;12.3;73.4
79356;SHT31;68825;51.978;5.654;2023-04-24T00:52:07;12.3;73.9
79356;SHT31;68825;51.978;5.654;2023-04-24T00:54:37;12.3;74.2
79356;SHT31;68825;51.978;5.654;2023-04-24T00:57:05;12.2;74.1
79356;SHT31;68825;51.978;5.654;2023-04-24T00:59:34;12.2;74.5
79356;SHT31;68825;51.978;5.654;2023-04-24T01:02:04;12.2;75.0
79356;SHT31;68825;51.978;5.654;2023-04-24T01:04:34;12.2;74.3
79356;SHT31;68825;51.978;5.654;2023-04-24T01:07:04;12.2;73.3
79356;SHT31;68825;51.978;5.654;2023-04-24T01:09:37;12.1;72.3
79356;SHT31;68825;51.978;5.654;2023-04-24T01:12:06;12.1;73.4
79356;SHT31;68825;51.978;5.654;2023-04-24T01:14:38;12.0;73.1
79356;SHT31;68825;51.978;5.654;2023-04-24T01:17:07;12.0;73.9
79356;SHT31;68825;51.978;5.654;2023-04-24T01:19:38;12.0;74.7
79356;SHT31;68825;51.978;5.654;2023-04-24T01:22:10;12.0;74.2
79356;SHT31;68825;51.978;5.654;2023-04-24T01:24:39;11.9;74.2
79356;SHT31;68825;51.978;5.654;2023-04-24T01:27:09;11.9;74.4
79356;SHT31;68825;51.978;5.654;2023-04-24T01:29:39;11.9;74.5
79356;SHT31;68825;51.978;5.654;2023-04-24T01:32:07;11.9;74.8
79356;SHT31;68825;51.978;5.654;2023-04-24T01:34:39;11.9;75.2
79356;SHT31;68825;51.978;5.654;2023-04-24T01:37:08;12.0;74.9
79356;SHT31;68825;51.978;5.654;2023-04-24T01:39:39;12.0;74.7
79356;SHT31;68825;51.978;5.654;2023-04-24T01:42:12;12.0;74.4
79356;SHT31;68825;51.978;5.654;2023-04-24T01:44:41;12.0;74.8
79356;SHT31;68825;51.978;5.654;2023-04-24T01:47:10;12.1;74.5
79356;SHT31;68825;51.978;5.654;2023-04-24T01:49:39;12.1;75.0
79356;SHT31;68825;51.978;5.654;2023-04-24T01:52:08;12.1;75.5
79356;SHT31;68825;51.978;5.654;2023-04-24T01:54:39;12.1;74.9
79356;SHT31;68825;51.978;5.654;2023-04-24T01:57:07;12.1;75.2
79356;SHT31;68825;51.978;5.654;2023-04-24T01:59:37;12.1;75.2
79356;SHT31;68825;51.978;5.654;2023-04-24T02:02:05;12.1;75.5
79356;SHT31;68825;51.978;5.654;2023-04-24T02:04:34;12.2;75.6
79356;SHT31;68825;51.978;5.654;2023-04-24T02:07:03;12.2;75.3
79356;SHT31;68825;51.978;5.654;2023-04-24T02:09:32;12.2;75.2
79356;SHT31;68825;51.978;5.654;2023-04-24T02:12:00;12.2;74.9
79356;SHT31;68825;51.978;5.654;2023-04-24T02:14:29;12.2;75.3
79356;SHT31;68825;51.978;5.654;2023-04-24T02:16:57;12.3;75.2
79356;SHT31;68825;51.978;5.654;2023-04-24T02:19:27;12.3;75.1
79356;SHT31;68825;51.978;5.654;2023-04-24T02:21:55;12.3;75.6
79356;SHT31;68825;51.978;5.654;2023-04-24T02:24:24;12.3;75.4
79356;SHT31;68825;51.978;5.654;2023-04-24T02:26:52;12.3;75.3
79356;SHT31;68825;51.978;5.654;2023-04-24T02:29:22;12.3;75.3
79356;SHT31;68825;51.978;5.654;2023-04-24T02:31:50;12.3;75.4
79356;SHT31;68825;51.978;5.654;2023-04-24T02:34:21;12.3;76.1
79356;SHT31;68825;51.978;5.654;2023-04-24T02:36:49;12.3;76.1
79356;SHT31;68825;51.978;5.654;2023-04-24T02:39:20;12.3;75.3
79356;SHT31;68825;51.978;5.654;2023-04-24T02:41:48;12.3;74.4
79356;SHT31;68825;51.978;5.654;2023-04-24T02:44:17;12.2;74.5
79356;SHT31;68825;51.978;5.654;2023-04-24T02:46:46;12.2;75.1
79356;SHT31;68825;51.978;5.654;2023-04-24T02:49:14;12.2;75.2
79356;SHT31;68825;51.978;5.654;2023-04-24T02:51:43;12.1;75.5
79356;SHT31;68825;51.978;5.654;2023-04-24T02:54:11;12.1;75.5
79356;SHT31;68825;51.978;5.654;2023-04-24T02:56:40;12.1;75.6
79356;SHT31;68825;51.978;5.654;2023-04-24T02:59:08;12.1;75.2
79356;SHT31;68825;51.978;5.654;2023-04-24T03:01:37;12.0;75.4
79356;SHT31;68825;51.978;5.654;2023-04-24T03:04:06;12.0;75.1
79356;SHT31;68825;51.978;5.654;2023-04-24T03:06:36;12.0;74.7
79356;SHT31;68825;51.978;5.654;2023-04-24T03:09:05;12.0;75.2
79356;SHT31;68825;51.978;5.654;2023-04-24T03:11:37;12.0;75.7
79356;SHT31;68825;51.978;5.654;2023-04-24T03:14:07;12.0;75.8
79356;SHT31;68825;51.978;5.654;2023-04-24T03:16:35;12.0;76.1
79356;SHT31;68825;51.978;5.654;2023-04-24T03:19:04;12.0;76.4
79356;SHT31;68825;51.978;5.654;2023-04-24T03:21:33;12.0;76.3
79356;SHT31;68825;51.978;5.654;2023-04-24T03:24:02;12.0;76.8
79356;SHT31;68825;51.978;5.654;2023-04-24T03:26:30;12.1;76.7
79356;SHT31;68825;51.978;5.654;2023-04-24T03:28:59;12.1;76.7
79356;SHT31;68825;51.978;5.654;2023-04-24T03:31:27;12.1;76.1
79356;SHT31;68825;51.978;5.654;2023-04-24T03:33:56;12.1;76.4
79356;SHT31;68825;51.978;5.654;2023-04-24T03:36:25;12.1;76.1
79356;SHT31;68825;51.978;5.654;2023-04-24T03:38:54;12.1;75.5
79356;SHT31;68825;51.978;5.654;2023-04-24T03:41:22;12.1;75.5
79356;SHT31;68825;51.978;5.654;2023-04-24T03:43:51;12.1;74.8
79356;SHT31;68825;51.978;5.654;2023-04-24T03:46:20;12.1;74.9
79356;SHT31;68825;51.978;5.654;2023-04-24T03:48:48;12.1;75.4
79356;SHT31;68825;51.978;5.654;2023-04-24T03:51:17;12.1;75.4
79356;SHT31;68825;51.978;5.654;2023-04-24T03:53:46;12.1;75.4
79356;SHT31;68825;51.978;5.654;2023-04-24T03:56:14;12.1;75.4
79356;SHT31;68825;51.978;5.654;2023-04-24T03:58:43;12.1;75.2
79356;SHT31;68825;51.978;5.654;2023-04-24T04:01:13;12.1;75.1
79356;SHT31;68825;51.978;5.654;2023-04-24T04:03:42;12.1;74.5
79356;SHT31;68825;51.978;5.654;2023-04-24T04:06:12;12.1;74.5
79356;SHT31;68825;51.978;5.654;2023-04-24T04:08:41;12.1;74.4
79356;SHT31;68825;51.978;5.654;2023-04-24T04:11:09;12.1;74.4
79356;SHT31;68825;51.978;5.654;2023-04-24T04:13:38;12.1;74.0
79356;SHT31;68825;51.978;5.654;2023-04-24T04:16:10;12.1;74.1
79356;SHT31;68825;51.978;5.654;2023-04-24T04:18:39;12.1;74.3
79356;SHT31;68825;51.978;5.654;2023-04-24T04:21:07;12.0;74.2
79356;SHT31;68825;51.978;5.654;2023-04-24T04:23:36;12.0;74.4
79356;SHT31;68825;51.978;5.654;2023-04-24T04:26:06;12.0;74.3
79356;SHT31;68825;51.978;5.654;2023-04-24T04:28:36;12.0;73.6
79356;SHT31;68825;51.978;5.654;2023-04-24T04:31:06;12.0;74.7
79356;SHT31;68825;51.978;5.654;2023-04-24T04:33:36;11.9;74.5
79356;SHT31;68825;51.978;5.654;2023-04-24T04:36:06;11.9;74.4
79356;SHT31;68825;51.978;5.654;2023-04-24T04:38:35;11.9;74.3
79356;SHT31;68825;51.978;5.654;2023-04-24T04:41:04;11.9;74.7
79356;SHT31;68825;51.978;5.654;2023-04-24T04:43:33;11.9;75.2
79356;SHT31;68825;51.978;5.654;2023-04-24T04:46:04;11.8;75.7
79356;SHT31;68825;51.978;5.654;2023-04-24T04:48:34;11.8;75.0
79356;SHT31;68825;51.978;5.654;2023-04-24T04:51:06;11.8;74.9
79356;SHT31;68825;51.978;5.654;2023-04-24T04:53:34;11.8;75.1
79356;SHT31;68825;51.978;5.654;2023-04-24T04:56:03;11.8;74.4
79356;SHT31;68825;51.978;5.654;2023-04-24T04:58:32;11.8;75.1
79356;SHT31;68825;51.978;5.654;2023-04-24T05:01:02;11.8;74.3
79356;SHT31;68825;51.978;5.654;2023-04-24T05:03:33;11.8;74.3
79356;SHT31;68825;51.978;5.654;2023-04-24T05:06:02;11.8;74.4
79356;SHT31;68825;51.978;5.654;2023-04-24T05:08:31;11.8;74.5
79356;SHT31;68825;51.978;5.654;2023-04-24T05:10:59;11.8;74.8
79356;SHT31;68825;51.978;5.654;2023-04-24T05:13:28;11.8;74.7
79356;SHT31;68825;51.978;5.654;2023-04-24T05:15:57;11.8;74.6
79356;SHT31;68825;51.978;5.654;2023-04-24T05:18:26;11.9;74.4
79356;SHT31;68825;51.978;5.654;2023-04-24T05:20:55;11.9;74.3
79356;SHT31;68825;51.978;5.654;2023-04-24T05:23:26;11.9;74.1
79356;SHT31;68825;51.978;5.654;2023-04-24T05:25:55;11.9;74.1
79356;SHT31;68825;51.978;5.654;2023-04-24T05:28:23;12.0;74.7
79356;SHT31;68825;51.978;5.654;2023-04-24T05:30:54;12.0;74.7
79356;SHT31;68825;51.978;5.654;2023-04-24T05:33:25;12.0;74.5
79356;SHT31;68825;51.978;5.654;2023-04-24T05:35:54;12.0;74.7
79356;SHT31;68825;51.978;5.654;2023-04-24T05:38:24;12.1;74.2
79356;SHT31;68825;51.978;5.654;2023-04-24T05:40:53;12.1;74.4
79356;SHT31;68825;51.978;5.654;2023-04-24T05:43:22;12.1;74.3
79356;SHT31;68825;51.978;5.654;2023-04-24T05:45:53;12.1;74.3
79356;SHT31;68825;51.978;5.654;2023-04-24T05:48:22;12.2;74.2
79356;SHT31;68825;51.978;5.654;2023-04-24T05:50:51;12.2;74.5
79356;SHT31;68825;51.978;5.654;2023-04-24T05:53:21;12.2;74.2
79356;SHT31;68825;51.978;5.654;2023-04-24T05:55:49;12.2;74.4
79356;SHT31;68825;51.978;5.654;2023-04-24T05:58:18;12.3;74.5
79356;SHT31;68825;51.978;5.654;2023-04-24T06:00:47;12.3;74.8
79356;SHT31;68825;51.978;5.654;2023-04-24T06:03:16;12.3;74.6
79356;SHT31;68825;51.978;5.654;2023-04-24T06:05:44;12.3;74.8
79356;SHT31;68825;51.978;5.654;2023-04-24T06:08:13;12.4;74.8
79356;SHT31;68825;51.978;5.654;2023-04-24T06:10:42;12.4;74.8
79356;SHT31;68825;51.978;5.654;2023-04-24T06:13:10;12.4;74.6
79356;SHT31;68825;51.978;5.654;2023-04-24T06:15:39;12.4;74.6
79356;SHT31;68825;51.978;5.654;2023-04-24T06:18:08;12.4;75.1
79356;SHT31;68825;51.978;5.654;2023-04-24T06:20:39;12.4;74.7
79356;SHT31;68825;51.978;5.654;2023-04-24T06:23:07;12.4;74.6
79356;SHT31;68825;51.978;5.654;2023-04-24T06:25:36;12.4;74.7
79356;SHT31;68825;51.978;5.654;2023-04-24T06:28:06;12.4;74.9
79356;SHT31;68825;51.978;5.654;2023-04-24T06:30:34;12.4;75.1
79356;SHT31;68825;51.978;5.654;2023-04-24T06:33:03;12.4;75.3
79356;SHT31;68825;51.978;5.654;2023-04-24T06:35:31;12.3;74.9
79356;SHT31;68825;51.978;5.654;2023-04-24T06:38:00;12.3;74.6
79356;SHT31;68825;51.978;5.654;2023-04-24T06:40:29;12.2;75.4
79356;SHT31;68825;51.978;5.654;2023-04-24T06:42:58;12.2;75.6
79356;SHT31;68825;51.978;5.654;2023-04-24T06:45:29;12.1;75.6
79356;SHT31;68825;51.978;5.654;2023-04-24T06:48:00;12.1;76.2
79356;SHT31;68825;51.978;5.654;2023-04-24T06:50:29;12.1;76.1
79356;SHT31;68825;51.978;5.654;2023-04-24T06:52:57;12.0;75.7
79356;SHT31;68825;51.978;5.654;2023-04-24T06:55:26;12.0;75.3
79356;SHT31;68825;51.978;5.654;2023-04-24T06:57:56;11.9;75.4
79356;SHT31;68825;51.978;5.654;2023-04-24T07:00:25;11.9;75.9
79356;SHT31;68825;51.978;5.654;2023-04-24T07:02:54;11.8;76.0
79356;SHT31;68825;51.978;5.654;2023-04-24T07:05:23;11.8;76.4
79356;SHT31;68825;51.978;5.654;2023-04-24T07:07:52;11.7;77.0
79356;SHT31;68825;51.978;5.654;2023-04-24T07:10:21;11.7;77.1
79356;SHT31;68825;51.978;5.654;2023-04-24T07:12:49;11.6;77.0
79356;SHT31;68825;51.978;5.654;2023-04-24T07:15:18;11.5;77.7
79356;SHT31;68825;51.978;5.654;2023-04-24T07:17:47;11.5;77.8
79356;SHT31;68825;51.978;5.654;2023-04-24T07:20:16;11.4;77.6
79356;SHT31;68825;51.978;5.654;2023-04-24T07:22:44;11.3;78.3
79356;SHT31;68825;51.978;5.654;2023-04-24T07:25:14;11.2;78.5
79356;SHT31;68825;51.978;5.654;2023-04-24T07:27:43;11.1;78.7
79356;SHT31;68825;51.978;5.654;2023-04-24T07:30:12;11.1;78.9
79356;SHT31;68825;51.978;5.654;2023-04-24T07:32:41;11.0;79.0
79356;SHT31;68825;51.978;5.654;2023-04-24T07:35:10;10.9;79.5
79356;SHT31;68825;51.978;5.654;2023-04-24T07:37:39;10.7;80.1
79356;SHT31;68825;51.978;5.654;2023-04-24T07:40:12;10.7;80.1
79356;SHT31;68825;51.978;5.654;2023-04-24T07:42:41;10.6;80.9
79356;SHT31;68825;51.978;5.654;2023-04-24T07:45:10;10.5;80.9
79356;SHT31;68825;51.978;5.654;2023-04-24T07:47:40;10.4;81.0
79356;SHT31;68825;51.978;5.654;2023-04-24T07:50:11;10.4;81.5
79356;SHT31;68825;51.978;5.654;2023-04-24T07:52:40;10.3;81.6
79356;SHT31;68825;51.978;5.654;2023-04-24T07:55:09;10.3;81.2
79356;SHT31;68825;51.978;5.654;2023-04-24T07:57:39;10.2;81.6
79356;SHT31;68825;51.978;5.654;2023-04-24T08:00:09;10.2;81.6
79356;SHT31;68825;51.978;5.654;2023-04-24T08:02:38;10.2;82.1
79356;SHT31;68825;51.978;5.654;2023-04-24T08:05:07;10.1;82.8
79356;SHT31;68825;51.978;5.654;2023-04-24T08:07:36;10.1;82.9
79356;SHT31;68825;51.978;5.654;2023-04-24T08:10:05;10.1;82.9
79356;SHT31;68825;51.978;5.654;2023-04-24T08:12:34;10.1;82.5
79356;SHT31;68825;51.978;5.654;2023-04-24T08:15:03;10.1;82.6
79356;SHT31;68825;51.978;5.654;2023-04-24T08:17:32;10.1;82.6
79356;SHT31;68825;51.978;5.654;2023-04-24T08:20:00;10.1;83.2
79356;SHT31;68825;51.978;5.654;2023-04-24T08:22:30;10.0;83.2
79356;SHT31;68825;51.978;5.654;2023-04-24T08:25:00;10.0;83.6
79356;SHT31;68825;51.978;5.654;2023-04-24T08:27:29;10.0;83.3
79356;SHT31;68825;51.978;5.654;2023-04-24T08:29:57;10.0;83.6
79356;SHT31;68825;51.978;5.654;2023-04-24T08:32:26;10.0;83.9
79356;SHT31;68825;51.978;5.654;2023-04-24T08:34:57;10.0;84.3
79356;SHT31;68825;51.978;5.654;2023-04-24T08:37:27;10.1;83.9
79356;SHT31;68825;51.978;5.654;2023-04-24T08:39:56;10.1;83.1
79356;SHT31;68825;51.978;5.654;2023-04-24T08:42:30;10.1;82.9
79356;SHT31;68825;51.978;5.654;2023-04-24T08:45:00;10.1;82.5
79356;SHT31;68825;51.978;5.654;2023-04-24T08:47:29;10.1;81.9
79356;SHT31;68825;51.978;5.654;2023-04-24T08:49:59;10.0;82.2
79356;SHT31;68825;51.978;5.654;2023-04-24T08:52:29;10.0;83.7
79356;SHT31;68825;51.978;5.654;2023-04-24T08:55:00;10.0;83.8
79356;SHT31;68825;51.978;5.654;2023-04-24T08:57:29;10.0;83.6
79356;SHT31;68825;51.978;5.654;2023-04-24T09:00:02;10.0;83.0
79356;SHT31;68825;51.978;5.654;2023-04-24T09:02:31;9.9;83.6
79356;SHT31;68825;51.978;5.654;2023-04-24T09:05:01;10.0;82.9
79356;SHT31;68825;51.978;5.654;2023-04-24T09:07:35;10.0;82.6
79356;SHT31;68825;51.978;5.654;2023-04-24T09:10:06;10.0;83.5
79356;SHT31;68825;51.978;5.654;2023-04-24T09:12:39;10.0;82.5
79356;SHT31;68825;51.978;5.654;2023-04-24T09:15:09;10.0;81.0
79356;SHT31;68825;51.978;5.654;2023-04-24T09:17:38;10.0;81.2
79356;SHT31;68825;51.978;5.654;2023-04-24T09:20:08;10.0;81.7
79356;SHT31;68825;51.978;5.654;2023-04-24T09:22:37;10.0;80.8
79356;SHT31;68825;51.978;5.654;2023-04-24T09:25:07;10.0;79.8
79356;SHT31;68825;51.978;5.654;2023-04-24T09:27:42;10.1;79.8
79356;SHT31;68825;51.978;5.654;2023-04-24T09:30:13;10.1;79.1
79356;SHT31;68825;51.978;5.654;2023-04-24T09:32:42;10.1;79.6
79356;SHT31;68825;51.978;5.654;2023-04-24T09:35:12;10.1;79.3
79356;SHT31;68825;51.978;5.654;2023-04-24T09:37:45;10.1;78.0
79356;SHT31;68825;51.978;5.654;2023-04-24T09:40:17;10.1;79.5
79356;SHT31;68825;51.978;5.654;2023-04-24T09:42:53;10.1;78.5
79356;SHT31;68825;51.978;5.654;2023-04-24T09:45:22;10.1;77.9
79356;SHT31;68825;51.978;5.654;2023-04-24T09:47:54;10.1;77.9
79356;SHT31;68825;51.978;5.654;2023-04-24T09:50:24;10.1;76.7
79356;SHT31;68825;51.978;5.654;2023-04-24T09:52:58;10.1;78.0
79356;SHT31;68825;51.978;5.654;2023-04-24T09:55:28;10.1;77.6
79356;SHT31;68825;51.978;5.654;2023-04-24T09:57:59;10.2;79.0
79356;SHT31;68825;51.978;5.654;2023-04-24T10:00:33;10.2;77.7
79356;SHT31;68825;51.978;5.654;2023-04-24T10:03:04;10.3;77.9
79356;SHT31;68825;51.978;5.654;2023-04-24T10:05:34;10.4;78.9
79356;SHT31;68825;51.978;5.654;2023-04-24T10:08:05;10.5;76.8
79356;SHT31;68825;51.978;5.654;2023-04-24T10:10:38;10.6;76.7
79356;SHT31;68825;51.978;5.654;2023-04-24T10:13:09;10.7;76.0
79356;SHT31;68825;51.978;5.654;2023-04-24T10:15:39;10.7;76.4
79356;SHT31;68825;51.978;5.654;2023-04-24T10:18:09;10.8;77.0
79356;SHT31;68825;51.978;5.654;2023-04-24T10:20:39;10.9;75.1
79356;SHT31;68825;51.978;5.654;2023-04-24T10:23:09;11.0;74.1
79356;SHT31;68825;51.978;5.654;2023-04-24T10:25:41;11.1;72.0
79356;SHT31;68825;51.978;5.654;2023-04-24T10:28:12;11.1;72.1
79356;SHT31;68825;51.978;5.654;2023-04-24T10:30:43;11.2;72.6
79356;SHT31;68825;51.978;5.654;2023-04-24T10:33:12;11.2;71.8
79356;SHT31;68825;51.978;5.654;2023-04-24T10:35:49;11.3;68.8
79356;SHT31;68825;51.978;5.654;2023-04-24T10:38:24;11.3;71.2
79356;SHT31;68825;51.978;5.654;2023-04-24T10:40:57;11.4;69.3
79356;SHT31;68825;51.978;5.654;2023-04-24T10:43:33;11.4;69.4
79356;SHT31;68825;51.978;5.654;2023-04-24T10:46:05;11.5;68.1
79356;SHT31;68825;51.978;5.654;2023-04-24T10:48:35;11.5;66.3
79356;SHT31;68825;51.978;5.654;2023-04-24T10:51:04;11.5;66.2
79356;SHT31;68825;51.978;5.654;2023-04-24T10:53:35;11.5;66.5
79356;SHT31;68825;51.978;5.654;2023-04-24T10:56:06;11.5;66.8
79356;SHT31;68825;51.978;5.654;2023-04-24T10:58:41;11.5;66.9
79356;SHT31;68825;51.978;5.654;2023-04-24T11:01:26;11.5;68.2
79356;SHT31;68825;51.978;5.654;2023-04-24T11:03:57;11.4;69.3
79356;SHT31;68825;51.978;5.654;2023-04-24T11:06:32;11.5;65.6
79356;SHT31;68825;51.978;5.654;2023-04-24T11:09:06;11.5;67.7
79356;SHT31;68825;51.978;5.654;2023-04-24T11:11:37;11.5;67.3
79356;SHT31;68825;51.978;5.654;2023-04-24T11:14:07;11.5;68.7
79356;SHT31;68825;51.978;5.654;2023-04-24T11:16:40;11.6;66.4
79356;SHT31;68825;51.978;5.654;2023-04-24T11:19:21;11.6;66.1
79356;SHT31;68825;51.978;5.654;2023-04-24T11:21:59;11.6;66.0
79356;SHT31;68825;51.978;5.654;2023-04-24T11:24:31;11.7;67.4
79356;SHT31;68825;51.978;5.654;2023-04-24T11:27:11;11.7;66.6
79356;SHT31;68825;51.978;5.654;2023-04-24T11:29:43;11.8;67.1
79356;SHT31;68825;51.978;5.654;2023-04-24T11:32:25;11.9;67.3
79356;SHT31;68825;51.978;5.654;2023-04-24T11:34:55;12.0;65.8
79356;SHT31;68825;51.978;5.654;2023-04-24T11:37:27;12.1;66.1
79356;SHT31;68825;51.978;5.654;2023-04-24T11:39:57;12.2;64.0
79356;SHT31;68825;51.978;5.654;2023-04-24T11:42:28;12.2;64.6
79356;SHT31;68825;51.978;5.654;2023-04-24T11:44:56;12.3;64.3
79356;SHT31;68825;51.978;5.654;2023-04-24T11:47:29;12.3;63.5
79356;SHT31;68825;51.978;5.654;2023-04-24T11:50:01;12.3;62.7
79356;SHT31;68825;51.978;5.654;2023-04-24T11:52:31;12.3;63.7
79356;SHT31;68825;51.978;5.654;2023-04-24T11:55:00;12.2;63.9
79356;SHT31;68825;51.978;5.654;2023-04-24T11:57:32;12.2;63.3
79356;SHT31;68825;51.978;5.654;2023-04-24T12:00:04;12.1;64.7
79356;SHT31;68825;51.978;5.654;2023-04-24T12:02:34;12.0;65.3
79356;SHT31;68825;51.978;5.654;2023-04-24T12:05:03;11.8;66.8
79356;SHT31;68825;51.978;5.654;2023-04-24T12:07:41;11.7;66.7
79356;SHT31;68825;51.978;5.654;2023-04-24T12:10:13;11.6;68.0
79356;SHT31;68825;51.978;5.654;2023-04-24T12:12:42;11.5;68.7
79356;SHT31;68825;51.978;5.654;2023-04-24T12:15:18;11.5;69.4
79356;SHT31;68825;51.978;5.654;2023-04-24T12:17:48;11.5;68.4
79356;SHT31;68825;51.978;5.654;2023-04-24T12:20:26;11.5;69.0
79356;SHT31;68825;51.978;5.654;2023-04-24T12:22:56;11.5;68.3
79356;SHT31;68825;51.978;5.654;2023-04-24T12:25:26;11.6;67.4
79356;SHT31;68825;51.978;5.654;2023-04-24T12:28:10;11.7;67.0
79356;SHT31;68825;51.978;5.654;2023-04-24T12:30:41;11.8;65.4
79356;SHT31;68825;51.978;5.654;2023-04-24T12:33:11;11.9;64.0
79356;SHT31;68825;51.978;5.654;2023-04-24T12:35:41;12.0;64.8
79356;SHT31;68825;51.978;5.654;2023-04-24T12:38:11;12.0;63.3
79356;SHT31;68825;51.978;5.654;2023-04-24T12:40:41;12.0;64.5
79356;SHT31;68825;51.978;5.654;2023-04-24T12:43:18;12.0;63.7
79356;SHT31;68825;51.978;5.654;2023-04-24T12:45:48;12.1;64.1
79356;SHT31;68825;51.978;5.654;2023-04-24T12:48:18;12.1;64.3
79356;SHT31;68825;51.978;5.654;2023-04-24T12:50:48;12.2;65.2
79356;SHT31;68825;51.978;5.654;2023-04-24T12:53:17;12.2;63.7
79356;SHT31;68825;51.978;5.654;2023-04-24T12:55:46;12.3;61.5
79356;SHT31;68825;51.978;5.654;2023-04-24T12:58:19;12.4;61.5
79356;SHT31;68825;51.978;5.654;2023-04-24T13:00:48;12.4;62.0
79356;SHT31;68825;51.978;5.654;2023-04-24T13:03:17;12.4;60.1
79356;SHT31;68825;51.978;5.654;2023-04-24T13:05:46;12.4;62.0
79356;SHT31;68825;51.978;5.654;2023-04-24T13:08:19;12.4;62.3
79356;SHT31;68825;51.978;5.654;2023-04-24T13:10:48;12.5;62.0
79356;SHT31;68825;51.978;5.654;2023-04-24T13:13:18;12.5;59.1
79356;SHT31;68825;51.978;5.654;2023-04-24T13:15:47;12.5;59.1
79356;SHT31;68825;51.978;5.654;2023-04-24T13:18:15;12.5;58.1
79356;SHT31;68825;51.978;5.654;2023-04-24T13:20:44;12.5;59.1
79356;SHT31;68825;51.978;5.654;2023-04-24T13:23:13;12.5;59.7
79356;SHT31;68825;51.978;5.654;2023-04-24T13:25:44;12.5;59.2
79356;SHT31;68825;51.978;5.654;2023-04-24T13:28:13;12.5;58.9
79356;SHT31;68825;51.978;5.654;2023-04-24T13:30:42;12.5;59.5
79356;SHT31;68825;51.978;5.654;2023-04-24T13:33:11;12.5;59.7
79356;SHT31;68825;51.978;5.654;2023-04-24T13:35:39;12.6;60.6
79356;SHT31;68825;51.978;5.654;2023-04-24T13:38:08;12.6;59.5
79356;SHT31;68825;51.978;5.654;2023-04-24T13:40:36;12.7;59.5
79356;SHT31;68825;51.978;5.654;2023-04-24T13:43:05;12.7;58.2
79356;SHT31;68825;51.978;5.654;2023-04-24T13:45:34;12.8;58.7
79356;SHT31;68825;51.978;5.654;2023-04-24T13:48:04;12.9;55.7
79356;SHT31;68825;51.978;5.654;2023-04-24T13:50:35;13.0;55.0
79356;SHT31;68825;51.978;5.654;2023-04-24T13:53:03;13.0;55.0
79356;SHT31;68825;51.978;5.654;2023-04-24T13:55:32;13.1;54.7
79356;SHT31;68825;51.978;5.654;2023-04-24T13:58:01;13.2;54.7
79356;SHT31;68825;51.978;5.654;2023-04-24T14:00:32;13.3;54.0
79356;SHT31;68825;51.978;5.654;2023-04-24T14:03:03;13.3;53.5
79356;SHT31;68825;51.978;5.654;2023-04-24T14:05:32;13.3;53.4
79356;SHT31;68825;51.978;5.654;2023-04-24T14:08:01;13.3;54.9
79356;SHT31;68825;51.978;5.654;2023-04-24T14:10:30;13.3;55.2
79356;SHT31;68825;51.978;5.654;2023-04-24T14:12:59;13.4;53.1
79356;SHT31;68825;51.978;5.654;2023-04-24T14:15:28;13.4;51.6
79356;SHT31;68825;51.978;5.654;2023-04-24T14:17:57;13.4;50.8
79356;SHT31;68825;51.978;5.654;2023-04-24T14:20:27;13.5;52.4
79356;SHT31;68825;51.978;5.654;2023-04-24T14:22:56;13.5;51.8
79356;SHT31;68825;51.978;5.654;2023-04-24T14:25:27;13.5;51.6
79356;SHT31;68825;51.978;5.654;2023-04-24T14:27:57;13.5;50.7
79356;SHT31;68825;51.978;5.654;2023-04-24T14:30:26;13.6;52.7
79356;SHT31;68825;51.978;5.654;2023-04-24T14:32:55;13.6;51.5
79356;SHT31;68825;51.978;5.654;2023-04-24T14:35:23;13.6;51.1
79356;SHT31;68825;51.978;5.654;2023-04-24T14:37:54;13.6;51.1
79356;SHT31;68825;51.978;5.654;2023-04-24T14:40:23;13.6;51.3
79356;SHT31;68825;51.978;5.654;2023-04-24T14:42:52;13.6;49.6
79356;SHT31;68825;51.978;5.654;2023-04-24T14:45:25;13.7;50.5
79356;SHT31;68825;51.978;5.654;2023-04-24T14:47:55;13.7;50.2
79356;SHT31;68825;51.978;5.654;2023-04-24T14:50:24;13.7;49.6
79356;SHT31;68825;51.978;5.654;2023-04-24T14:52:54;13.7;50.6
79356;SHT31;68825;51.978;5.654;2023-04-24T14:55:23;13.7;50.7
79356;SHT31;68825;51.978;5.654;2023-04-24T14:57:53;13.6;52.1
79356;SHT31;68825;51.978;5.654;2023-04-24T15:00:22;13.6;51.1
79356;SHT31;68825;51.978;5.654;2023-04-24T15:02:51;13.6;51.0
79356;SHT31;68825;51.978;5.654;2023-04-24T15:05:21;13.6;50.2
79356;SHT31;68825;51.978;5.654;2023-04-24T15:07:50;13.6;51.2
79356;SHT31;68825;51.978;5.654;2023-04-24T15:10:19;13.6;52.1
79356;SHT31;68825;51.978;5.654;2023-04-24T15:12:49;13.5;52.0
79356;SHT31;68825;51.978;5.654;2023-04-24T15:15:18;13.5;51.2
79356;SHT31;68825;51.978;5.654;2023-04-24T15:17:48;13.4;50.2
79356;SHT31;68825;51.978;5.654;2023-04-24T15:20:17;13.3;51.5
79356;SHT31;68825;51.978;5.654;2023-04-24T15:22:46;13.3;52.4
79356;SHT31;68825;51.978;5.654;2023-04-24T15:25:15;13.2;52.2
79356;SHT31;68825;51.978;5.654;2023-04-24T15:27:45;13.2;53.2
79356;SHT31;68825;51.978;5.654;2023-04-24T15:30:14;13.1;55.9
79356;SHT31;68825;51.978;5.654;2023-04-24T15:32:43;13.1;55.0
79356;SHT31;68825;51.978;5.654;2023-04-24T15:35:13;13.1;56.0
79356;SHT31;68825;51.978;5.654;2023-04-24T15:37:42;13.1;56.8
79356;SHT31;68825;51.978;5.654;2023-04-24T15:40:12;13.1;54.7
79356;SHT31;68825;51.978;5.654;2023-04-24T15:42:42;13.1;54.4
79356;SHT31;68825;51.978;5.654;2023-04-24T15:45:11;13.1;54.5
79356;SHT31;68825;51.978;5.654;2023-04-24T15:47:40;13.2;52.9
79356;SHT31;68825;51.978;5.654;2023-04-24T15:50:09;13.2;53.5
79356;SHT31;68825;51.978;5.654;2023-04-24T15:52:38;13.3;53.7
79356;SHT31;68825;51.978;5.654;2023-04-24T15:55:12;13.4;53.8
79356;SHT31;68825;51.978;5.654;2023-04-24T15:57:41;13.4;52.9
79356;SHT31;68825;51.978;5.654;2023-04-24T16:00:11;13.4;53.7
79356;SHT31;68825;51.978;5.654;2023-04-24T16:02:40;13.4;55.0
79356;SHT31;68825;51.978;5.654;2023-04-24T16:05:11;13.4;55.8
79356;SHT31;68825;51.978;5.654;2023-04-24T16:07:41;13.4;55.1
79356;SHT31;68825;51.978;5.654;2023-04-24T16:10:12;13.4;55.6
79356;SHT31;68825;51.978;5.654;2023-04-24T16:12:41;13.4;53.9
79356;SHT31;68825;51.978;5.654;2023-04-24T16:15:10;13.4;54.7
79356;SHT31;68825;51.978;5.654;2023-04-24T16:17:40;13.3;54.3
79356;SHT31;68825;51.978;5.654;2023-04-24T16:20:10;13.3;51.8